Overview Statistics Trail Chart Weather Telemetry Raw packets
 

This is the latest recevied weather packets stored in our database for station/object SV9TNF-51. If no packets are shown the sender has not sent any weather packets the latest 10 day(s).

<< 9 10 11 12 13 14 15 >>
Time Temp. Humidity Pressure Rain* Wind** Luminosity Snow
1788592056 31.11° C 46% 1014.2 hPa 0 mm 3.13 m/s, 183° - -
1788591756 30.56° C 47% 1014.2 hPa 0 mm 4.47 m/s, 10° - -
1788591456 30° C 48% 1014.2 hPa 0 mm 1.79 m/s, 116° - -
1788591156 30° C 48% 1014.2 hPa 0 mm 4.92 m/s, 295° - -
1788590856 30° C 48% 1014.2 hPa 0 mm 5.36 m/s, 130° - -
1788590556 29.44° C 48% 1014.2 hPa 0 mm 5.81 m/s, 348° - -
1788590256 29.44° C 48% 1014.2 hPa 0 mm 8.49 m/s, 227° - -
1788589956 30° C 48% 1014.2 hPa 0 mm 5.36 m/s, 321° - -
1788589656 29.44° C 50% 1014.2 hPa 0 mm 4.47 m/s, 62° - -
1788589355 29.44° C 51% 1014.2 hPa 0 mm 4.02 m/s, 352° - -
1788589055 30° C 49% 1014.2 hPa 0 mm 1.34 m/s, 206° - -
1788588755 29.44° C 50% 1014.2 hPa 0 mm 6.26 m/s, 122° - -
1788588455 28.89° C 53% 1013.9 hPa 0 mm 9.83 m/s, 141° - -
1788588155 28.33° C 53% 1013.9 hPa 0 mm 5.81 m/s, 224° - -
1788587855 28.33° C 52% 1013.9 hPa 0 mm 5.81 m/s, 246° - -
1788587555 28.33° C 52% 1013.9 hPa 0 mm 6.26 m/s, 199° - -
1788587254 28.33° C 52% 1013.6 hPa 0 mm 4.02 m/s, 205° - -
1788586955 27.78° C 53% 1013.6 hPa 0 mm 4.47 m/s, 220° - -
1788586654 27.78° C 53% 1013.6 hPa 0 mm 2.68 m/s, 169° - -
1788586355 27.22° C 54% 1013.6 hPa 0 mm 4.47 m/s, 187° - -
1788586054 27.22° C 54% 1013.6 hPa 0 mm 3.58 m/s, 152° - -
1788585754 26.67° C 55% 1013.2 hPa 0 mm 3.58 m/s, 149° - -
1788585454 26.11° C 56% 1013.2 hPa 0 mm 2.68 m/s, 133° - -
1788585154 26.11° C 56% 1013.2 hPa 0 mm 3.13 m/s, 156° - -
1788584854 26.11° C 57% 1013.2 hPa 0 mm 2.68 m/s, 22° - -

* Rain latest hour (hover to see other rain measurements)
** Current wind speed in m/s (hover to see current wind gust speed)